sensor_id;sensor_type;location;lat;lon;timestamp;pressure;altitude;pressure_sealevel;temperature;humidity
66196;BME280;53000;45.182;5.736;2022-08-21T00:02:16;99248.53;;;24.52;51.97
66196;BME280;53000;45.182;5.736;2022-08-21T00:04:42;99240.91;;;24.42;52.59
66196;BME280;53000;45.182;5.736;2022-08-21T00:07:07;99244.00;;;24.45;53.12
66196;BME280;53000;45.182;5.736;2022-08-21T00:09:33;99242.28;;;24.39;53.38
66196;BME280;53000;45.182;5.736;2022-08-21T00:11:58;99239.75;;;24.38;52.98
66196;BME280;53000;45.182;5.736;2022-08-21T00:14:23;99244.47;;;24.37;52.61
66196;BME280;53000;45.182;5.736;2022-08-21T00:16:49;99243.88;;;24.35;53.33
66196;BME280;53000;45.182;5.736;2022-08-21T00:19:14;99246.91;;;24.34;53.07
66196;BME280;53000;45.182;5.736;2022-08-21T00:21:39;99248.28;;;24.31;53.15
66196;BME280;53000;45.182;5.736;2022-08-21T00:24:05;99244.09;;;24.28;53.19
66196;BME280;53000;45.182;5.736;2022-08-21T00:26:30;99257.09;;;24.28;53.39
66196;BME280;53000;45.182;5.736;2022-08-21T00:28:56;99254.84;;;24.25;53.63
66196;BME280;53000;45.182;5.736;2022-08-21T00:31:21;99249.00;;;24.21;53.57
66196;BME280;53000;45.182;5.736;2022-08-21T00:33:47;99255.03;;;24.18;53.36
66196;BME280;53000;45.182;5.736;2022-08-21T00:36:13;99253.06;;;24.14;53.26
66196;BME280;53000;45.182;5.736;2022-08-21T00:38:39;99249.97;;;24.10;53.73
66196;BME280;53000;45.182;5.736;2022-08-21T00:41:06;99255.22;;;24.06;54.16
66196;BME280;53000;45.182;5.736;2022-08-21T00:43:34;99256.81;;;24.02;53.74
66196;BME280;53000;45.182;5.736;2022-08-21T00:46:01;99250.94;;;23.99;54.06
66196;BME280;53000;45.182;5.736;2022-08-21T00:48:27;99254.88;;;24.03;54.05
66196;BME280;53000;45.182;5.736;2022-08-21T00:51:00;99255.41;;;24.00;53.80
66196;BME280;53000;45.182;5.736;2022-08-21T00:53:28;99249.53;;;23.96;53.88
66196;BME280;53000;45.182;5.736;2022-08-21T00:55:55;99252.06;;;23.98;53.86
66196;BME280;53000;45.182;5.736;2022-08-21T00:58:21;99243.19;;;23.96;53.73
66196;BME280;53000;45.182;5.736;2022-08-21T01:00:49;99245.38;;;23.94;53.88
66196;BME280;53000;45.182;5.736;2022-08-21T01:03:18;99253.34;;;23.90;54.04
66196;BME280;53000;45.182;5.736;2022-08-21T01:05:45;99246.72;;;23.91;54.12
66196;BME280;53000;45.182;5.736;2022-08-21T01:08:12;99258.28;;;23.88;54.09
66196;BME280;53000;45.182;5.736;2022-08-21T01:10:38;99260.47;;;23.86;53.96
66196;BME280;53000;45.182;5.736;2022-08-21T01:13:09;99254.94;;;23.86;53.99
66196;BME280;53000;45.182;5.736;2022-08-21T01:15:37;99249.94;;;23.83;53.95
66196;BME280;53000;45.182;5.736;2022-08-21T01:18:08;99250.19;;;23.81;53.63
66196;BME280;53000;45.182;5.736;2022-08-21T01:20:35;99251.31;;;23.80;53.90
66196;BME280;53000;45.182;5.736;2022-08-21T01:23:02;99244.91;;;23.80;54.16
66196;BME280;53000;45.182;5.736;2022-08-21T01:25:28;99241.56;;;23.78;54.05
66196;BME280;53000;45.182;5.736;2022-08-21T01:27:54;99247.38;;;23.76;53.92
66196;BME280;53000;45.182;5.736;2022-08-21T01:30:24;99247.00;;;23.73;53.89
66196;BME280;53000;45.182;5.736;2022-08-21T01:32:51;99249.38;;;23.64;54.26
66196;BME280;53000;45.182;5.736;2022-08-21T01:35:18;99242.69;;;23.60;54.20
66196;BME280;53000;45.182;5.736;2022-08-21T01:37:44;99247.06;;;23.56;54.58
66196;BME280;53000;45.182;5.736;2022-08-21T01:40:13;99257.03;;;23.57;54.53
66196;BME280;53000;45.182;5.736;2022-08-21T01:42:41;99234.78;;;23.46;54.38
66196;BME280;53000;45.182;5.736;2022-08-21T01:45:07;99252.84;;;23.54;54.42
66196;BME280;53000;45.182;5.736;2022-08-21T01:47:33;99245.66;;;23.53;54.53
66196;BME280;53000;45.182;5.736;2022-08-21T01:49:59;99249.50;;;23.52;54.70
66196;BME280;53000;45.182;5.736;2022-08-21T01:52:25;99247.84;;;23.51;54.92
66196;BME280;53000;45.182;5.736;2022-08-21T01:54:51;99241.72;;;23.49;55.48
66196;BME280;53000;45.182;5.736;2022-08-21T01:57:16;99235.28;;;23.43;55.64
66196;BME280;53000;45.182;5.736;2022-08-21T01:59:42;99235.47;;;23.37;55.42
66196;BME280;53000;45.182;5.736;2022-08-21T02:02:07;99237.41;;;23.36;55.72
66196;BME280;53000;45.182;5.736;2022-08-21T02:04:33;99226.34;;;23.36;55.37
66196;BME280;53000;45.182;5.736;2022-08-21T02:07:00;99231.34;;;23.39;55.50
66196;BME280;53000;45.182;5.736;2022-08-21T02:09:25;99228.34;;;23.41;54.97
66196;BME280;53000;45.182;5.736;2022-08-21T02:11:51;99230.28;;;23.40;55.24
66196;BME280;53000;45.182;5.736;2022-08-21T02:14:16;99233.38;;;23.44;55.61
66196;BME280;53000;45.182;5.736;2022-08-21T02:16:44;99234.22;;;23.44;54.99
66196;BME280;53000;45.182;5.736;2022-08-21T02:19:11;99234.44;;;23.43;54.99
66196;BME280;53000;45.182;5.736;2022-08-21T02:21:37;99229.19;;;23.41;54.75
66196;BME280;53000;45.182;5.736;2022-08-21T02:24:04;99239.72;;;23.44;54.82
66196;BME280;53000;45.182;5.736;2022-08-21T02:26:29;99230.88;;;23.42;55.39
66196;BME280;53000;45.182;5.736;2022-08-21T02:28:55;99230.88;;;23.42;55.33
66196;BME280;53000;45.182;5.736;2022-08-21T02:31:20;99233.63;;;23.42;55.02
66196;BME280;53000;45.182;5.736;2022-08-21T02:33:46;99236.38;;;23.42;55.38
66196;BME280;53000;45.182;5.736;2022-08-21T02:36:12;99234.13;;;23.39;55.11
66196;BME280;53000;45.182;5.736;2022-08-21T02:38:40;99242.41;;;23.39;55.39
66196;BME280;53000;45.182;5.736;2022-08-21T02:41:09;99236.88;;;23.39;55.39
66196;BME280;53000;45.182;5.736;2022-08-21T02:43:35;99239.63;;;23.39;54.99
66196;BME280;53000;45.182;5.736;2022-08-21T02:46:02;99231.06;;;23.36;55.27
66196;BME280;53000;45.182;5.736;2022-08-21T02:48:29;99230.72;;;23.32;55.30
66196;BME280;53000;45.182;5.736;2022-08-21T02:51:01;99226.19;;;23.26;55.10
66196;BME280;53000;45.182;5.736;2022-08-21T02:53:28;99231.47;;;23.27;54.75
66196;BME280;53000;45.182;5.736;2022-08-21T02:55:56;99226.13;;;23.21;55.60
66196;BME280;53000;45.182;5.736;2022-08-21T02:58:26;99217.69;;;23.11;55.61
66196;BME280;53000;45.182;5.736;2022-08-21T03:00:52;99222.03;;;23.06;55.75
66196;BME280;53000;45.182;5.736;2022-08-21T03:03:18;99223.16;;;23.05;56.12
66196;BME280;53000;45.182;5.736;2022-08-21T03:05:46;99219.53;;;23.05;56.97
66196;BME280;53000;45.182;5.736;2022-08-21T03:08:13;99214.28;;;23.03;56.41
66196;BME280;53000;45.182;5.736;2022-08-21T03:10:42;99218.59;;;22.99;56.20
66196;BME280;53000;45.182;5.736;2022-08-21T03:13:08;99219.38;;;22.95;56.46
66196;BME280;53000;45.182;5.736;2022-08-21T03:15:34;99214.50;;;22.85;56.66
66196;BME280;53000;45.182;5.736;2022-08-21T03:17:59;99219.97;;;22.80;56.40
66196;BME280;53000;45.182;5.736;2022-08-21T03:20:27;99211.91;;;22.78;57.14
66196;BME280;53000;45.182;5.736;2022-08-21T03:22:53;99214.09;;;22.76;57.10
66196;BME280;53000;45.182;5.736;2022-08-21T03:25:21;99208.06;;;22.79;57.38
66196;BME280;53000;45.182;5.736;2022-08-21T03:27:47;99211.34;;;22.76;57.13
66196;BME280;53000;45.182;5.736;2022-08-21T03:30:14;99201.63;;;22.74;57.53
66196;BME280;53000;45.182;5.736;2022-08-21T03:32:40;99209.91;;;22.74;57.04
66196;BME280;53000;45.182;5.736;2022-08-21T03:35:07;99208.22;;;22.73;57.38
66196;BME280;53000;45.182;5.736;2022-08-21T03:37:33;99207.41;;;22.72;57.25
66196;BME280;53000;45.182;5.736;2022-08-21T03:39:58;99196.88;;;22.69;57.17
66196;BME280;53000;45.182;5.736;2022-08-21T03:42:24;99199.88;;;22.67;57.37
66196;BME280;53000;45.182;5.736;2022-08-21T03:44:49;99203.16;;;22.64;56.84
66196;BME280;53000;45.182;5.736;2022-08-21T03:47:15;99202.28;;;22.64;57.53
66196;BME280;53000;45.182;5.736;2022-08-21T03:49:40;99200.63;;;22.63;57.54
66196;BME280;53000;45.182;5.736;2022-08-21T03:52:06;99194.78;;;22.59;58.04
66196;BME280;53000;45.182;5.736;2022-08-21T03:54:31;99197.47;;;22.54;56.88
66196;BME280;53000;45.182;5.736;2022-08-21T03:56:57;99210.06;;;22.50;57.73
66196;BME280;53000;45.182;5.736;2022-08-21T03:59:23;99206.72;;;22.48;58.31
66196;BME280;53000;45.182;5.736;2022-08-21T04:01:57;99204.72;;;22.43;57.75
66196;BME280;53000;45.182;5.736;2022-08-21T04:04:23;99213.22;;;22.42;58.12
66196;BME280;53000;45.182;5.736;2022-08-21T04:06:49;99213.75;;;22.39;58.17
66196;BME280;53000;45.182;5.736;2022-08-21T04:09:16;99216.16;;;22.35;57.95
66196;BME280;53000;45.182;5.736;2022-08-21T04:11:41;99215.91;;;22.37;57.64
66196;BME280;53000;45.182;5.736;2022-08-21T04:14:06;99215.06;;;22.36;57.87
66196;BME280;53000;45.182;5.736;2022-08-21T04:16:32;99216.97;;;22.36;58.03
66196;BME280;53000;45.182;5.736;2022-08-21T04:18:57;99216.38;;;22.34;58.10
66196;BME280;53000;45.182;5.736;2022-08-21T04:21:23;99215.81;;;22.32;57.99
66196;BME280;53000;45.182;5.736;2022-08-21T04:23:49;99228.16;;;22.29;58.86
66196;BME280;53000;45.182;5.736;2022-08-21T04:26:14;99226.50;;;22.28;58.31
66196;BME280;53000;45.182;5.736;2022-08-21T04:28:40;99222.31;;;22.25;58.03
66196;BME280;53000;45.182;5.736;2022-08-21T04:31:07;99227.81;;;22.25;58.21
66196;BME280;53000;45.182;5.736;2022-08-21T04:33:33;99215.38;;;22.23;58.35
66196;BME280;53000;45.182;5.736;2022-08-21T04:35:58;99221.84;;;22.17;58.30
66196;BME280;53000;45.182;5.736;2022-08-21T04:38:24;99225.47;;;22.17;59.02
66196;BME280;53000;45.182;5.736;2022-08-21T04:40:50;99227.63;;;22.15;59.15
66196;BME280;53000;45.182;5.736;2022-08-21T04:43:16;99222.34;;;22.14;58.88
66196;BME280;53000;45.182;5.736;2022-08-21T04:45:46;99219.22;;;22.10;58.99
66196;BME280;53000;45.182;5.736;2022-08-21T04:48:14;99214.91;;;22.14;59.02
66196;BME280;53000;45.182;5.736;2022-08-21T04:50:58;99223.75;;;22.16;58.65
66196;BME280;53000;45.182;5.736;2022-08-21T04:53:41;99218.75;;;22.13;59.22
66196;BME280;53000;45.182;5.736;2022-08-21T04:56:26;99223.91;;;22.10;59.11
66196;BME280;53000;45.182;5.736;2022-08-21T04:58:55;99228.34;;;22.11;59.11
66196;BME280;53000;45.182;5.736;2022-08-21T05:01:24;99226.66;;;22.10;59.25
66196;BME280;53000;45.182;5.736;2022-08-21T05:03:53;99223.56;;;22.06;59.00
66196;BME280;53000;45.182;5.736;2022-08-21T05:06:21;99220.81;;;22.06;59.28
66196;BME280;53000;45.182;5.736;2022-08-21T05:08:49;99221.91;;;22.05;59.12
66196;BME280;53000;45.182;5.736;2022-08-21T05:11:16;99231.00;;;22.05;59.04
66196;BME280;53000;45.182;5.736;2022-08-21T05:13:41;99228.34;;;22.11;58.68
66196;BME280;53000;45.182;5.736;2022-08-21T05:16:07;99231.94;;;22.11;59.30
66196;BME280;53000;45.182;5.736;2022-08-21T05:18:33;99227.50;;;22.10;58.84
66196;BME280;53000;45.182;5.736;2022-08-21T05:20:58;99230.41;;;22.03;59.88
66196;BME280;53000;45.182;5.736;2022-08-21T05:23:24;99235.31;;;22.01;59.35
66196;BME280;53000;45.182;5.736;2022-08-21T05:25:51;99235.25;;;21.96;59.05
66196;BME280;53000;45.182;5.736;2022-08-21T05:28:17;99227.81;;;21.97;59.07
66196;BME280;53000;45.182;5.736;2022-08-21T05:30:43;99245.53;;;22.01;58.87
66196;BME280;53000;45.182;5.736;2022-08-21T05:33:09;99242.25;;;22.04;59.13
66196;BME280;53000;45.182;5.736;2022-08-21T05:35:35;99242.84;;;22.06;59.55
66196;BME280;53000;45.182;5.736;2022-08-21T05:38:01;99246.47;;;22.07;59.14
66196;BME280;53000;45.182;5.736;2022-08-21T05:40:27;99239.03;;;22.07;59.84
66196;BME280;53000;45.182;5.736;2022-08-21T05:42:53;99244.28;;;22.09;59.71
66196;BME280;53000;45.182;5.736;2022-08-21T05:45:19;99251.25;;;22.11;59.94
66196;BME280;53000;45.182;5.736;2022-08-21T05:47:45;99239.94;;;22.13;59.27
66196;BME280;53000;45.182;5.736;2022-08-21T05:50:10;99250.75;;;22.14;59.23
66196;BME280;53000;45.182;5.736;2022-08-21T05:52:36;99244.16;;;22.15;59.55
66196;BME280;53000;45.182;5.736;2022-08-21T05:55:03;99246.66;;;22.17;59.29
66196;BME280;53000;45.182;5.736;2022-08-21T05:57:28;99242.22;;;22.16;59.06
66196;BME280;53000;45.182;5.736;2022-08-21T05:59:53;99253.59;;;22.19;58.92
66196;BME280;53000;45.182;5.736;2022-08-21T06:02:20;99249.88;;;22.25;58.73
66196;BME280;53000;45.182;5.736;2022-08-21T06:04:46;99254.69;;;22.30;58.86
66196;BME280;53000;45.182;5.736;2022-08-21T06:07:12;99253.00;;;22.29;58.66
66196;BME280;53000;45.182;5.736;2022-08-21T06:09:37;99254.69;;;22.30;58.44
66196;BME280;53000;45.182;5.736;2022-08-21T06:12:11;99257.91;;;22.27;58.73
66196;BME280;53000;45.182;5.736;2022-08-21T06:14:38;99249.41;;;22.29;58.90
66196;BME280;53000;45.182;5.736;2022-08-21T06:17:09;99255.25;;;22.32;58.68
66196;BME280;53000;45.182;5.736;2022-08-21T06:19:35;99252.47;;;22.32;58.53
66196;BME280;53000;45.182;5.736;2022-08-21T06:22:01;99251.19;;;22.35;58.59
66196;BME280;53000;45.182;5.736;2022-08-21T06:24:27;99254.84;;;22.40;58.49
66196;BME280;53000;45.182;5.736;2022-08-21T06:26:53;99253.78;;;22.41;58.61
66196;BME280;53000;45.182;5.736;2022-08-21T06:29:19;99246.91;;;22.44;58.24
66196;BME280;53000;45.182;5.736;2022-08-21T06:31:47;99250.28;;;22.46;57.89
66196;BME280;53000;45.182;5.736;2022-08-21T06:34:13;99235.47;;;22.35;58.05
66196;BME280;53000;45.182;5.736;2022-08-21T06:36:38;99248.09;;;22.48;58.05
66196;BME280;53000;45.182;5.736;2022-08-21T06:39:04;99245.34;;;22.48;57.91
66196;BME280;53000;45.182;5.736;2022-08-21T06:41:30;99246.28;;;22.54;57.71
66196;BME280;53000;45.182;5.736;2022-08-21T06:43:55;99247.69;;;22.56;57.93
66196;BME280;53000;45.182;5.736;2022-08-21T06:46:22;99232.22;;;22.55;57.43
66196;BME280;53000;45.182;5.736;2022-08-21T06:48:48;99237.34;;;22.63;57.23
66196;BME280;53000;45.182;5.736;2022-08-21T06:51:14;99249.31;;;22.69;57.00
66196;BME280;53000;45.182;5.736;2022-08-21T06:53:40;99241.34;;;22.73;57.05
66196;BME280;53000;45.182;5.736;2022-08-21T06:56:05;99240.63;;;22.77;57.32
66196;BME280;53000;45.182;5.736;2022-08-21T06:58:30;99247.03;;;22.83;56.67
66196;BME280;53000;45.182;5.736;2022-08-21T07:00:56;99254.91;;;22.91;56.44
66196;BME280;53000;45.182;5.736;2022-08-21T07:03:24;99260.25;;;22.98;56.39
66196;BME280;53000;45.182;5.736;2022-08-21T07:05:50;99258.94;;;23.00;56.15
66196;BME280;53000;45.182;5.736;2022-08-21T07:08:16;99258.94;;;23.00;56.04
66196;BME280;53000;45.182;5.736;2022-08-21T07:10:42;99248.75;;;23.01;56.01
66196;BME280;53000;45.182;5.736;2022-08-21T07:13:08;99245.72;;;23.02;56.12
66196;BME280;53000;45.182;5.736;2022-08-21T07:15:33;99250.00;;;23.10;56.11
66196;BME280;53000;45.182;5.736;2022-08-21T07:17:59;99259.19;;;23.16;55.92
66196;BME280;53000;45.182;5.736;2022-08-21T07:20:26;99252.06;;;23.20;55.96
66196;BME280;53000;45.182;5.736;2022-08-21T07:22:51;99258.84;;;23.29;56.08
66196;BME280;53000;45.182;5.736;2022-08-21T07:25:17;99258.16;;;23.39;55.69
66196;BME280;53000;45.182;5.736;2022-08-21T07:27:42;99255.19;;;23.45;55.30
66196;BME280;53000;45.182;5.736;2022-08-21T07:30:08;99258.53;;;23.47;54.91
66196;BME280;53000;45.182;5.736;2022-08-21T07:32:33;99257.53;;;23.54;54.89
66196;BME280;53000;45.182;5.736;2022-08-21T07:34:59;99255.44;;;23.61;54.85
66196;BME280;53000;45.182;5.736;2022-08-21T07:37:24;99251.72;;;23.72;54.63
66196;BME280;53000;45.182;5.736;2022-08-21T07:39:50;99251.34;;;23.85;54.29
66196;BME280;53000;45.182;5.736;2022-08-21T07:42:16;99249.28;;;23.98;53.90
66196;BME280;53000;45.182;5.736;2022-08-21T07:44:42;99249.59;;;24.01;53.65
66196;BME280;53000;45.182;5.736;2022-08-21T07:47:08;99244.16;;;24.06;54.01
66196;BME280;53000;45.182;5.736;2022-08-21T07:49:33;99244.25;;;24.17;53.68
66196;BME280;53000;45.182;5.736;2022-08-21T07:51:59;99244.09;;;24.28;53.34
66196;BME280;53000;45.182;5.736;2022-08-21T07:54:25;99247.81;;;24.39;52.90
66196;BME280;53000;45.182;5.736;2022-08-21T07:56:50;99243.00;;;24.52;52.87
66196;BME280;53000;45.182;5.736;2022-08-21T07:59:15;99241.94;;;24.58;52.54
66196;BME280;53000;45.182;5.736;2022-08-21T08:01:41;99233.09;;;24.61;52.45
66196;BME280;53000;45.182;5.736;2022-08-21T08:04:06;99230.09;;;24.62;52.57
66196;BME280;53000;45.182;5.736;2022-08-21T08:06:32;99229.88;;;24.69;52.44
66196;BME280;53000;45.182;5.736;2022-08-21T08:08:57;99228.34;;;24.88;51.48
66196;BME280;53000;45.182;5.736;2022-08-21T08:11:23;99217.91;;;25.33;50.92
66196;BME280;53000;45.182;5.736;2022-08-21T08:13:50;99218.31;;;26.20;49.99
66196;BME280;53000;45.182;5.736;2022-08-21T08:16:16;99209.94;;;27.64;47.73
66196;BME280;53000;45.182;5.736;2022-08-21T08:18:42;99207.13;;;29.32;45.60
66196;BME280;53000;45.182;5.736;2022-08-21T08:21:08;99202.00;;;30.11;42.48
66196;BME280;53000;45.182;5.736;2022-08-21T08:23:34;99208.22;;;29.84;40.93
66196;BME280;53000;45.182;5.736;2022-08-21T08:26:00;99210.28;;;29.25;41.91
66196;BME280;53000;45.182;5.736;2022-08-21T08:28:28;99203.25;;;28.69;42.99
66196;BME280;53000;45.182;5.736;2022-08-21T08:30:54;99205.97;;;28.30;44.94
66196;BME280;53000;45.182;5.736;2022-08-21T08:33:19;99217.03;;;27.96;43.49
66196;BME280;53000;45.182;5.736;2022-08-21T08:35:46;99201.59;;;27.64;43.56
66196;BME280;53000;45.182;5.736;2022-08-21T08:38:13;99191.66;;;27.37;45.04
66196;BME280;53000;45.182;5.736;2022-08-21T08:41:12;99191.28;;;27.64;45.50
66196;BME280;53000;45.182;5.736;2022-08-21T08:43:40;99189.03;;;29.00;43.05
66196;BME280;53000;45.182;5.736;2022-08-21T08:46:12;99187.66;;;30.56;43.07
66196;BME280;53000;45.182;5.736;2022-08-21T08:49:02;99179.41;;;31.99;40.06
66196;BME280;53000;45.182;5.736;2022-08-21T08:52:01;99177.31;;;33.32;37.89
66196;BME280;53000;45.182;5.736;2022-08-21T08:54:49;99180.41;;;34.45;33.11
66196;BME280;53000;45.182;5.736;2022-08-21T08:57:19;99171.03;;;35.23;36.65
66196;BME280;53000;45.182;5.736;2022-08-21T08:59:51;99169.75;;;35.89;32.94
66196;BME280;53000;45.182;5.736;2022-08-21T09:02:18;99169.31;;;36.29;30.71
66196;BME280;53000;45.182;5.736;2022-08-21T09:04:47;99175.03;;;36.62;31.90
66196;BME280;53000;45.182;5.736;2022-08-21T09:07:40;99175.09;;;36.87;31.29
66196;BME280;53000;45.182;5.736;2022-08-21T09:18:37;99154.56;;;39.02;27.99
66196;BME280;53000;45.182;5.736;2022-08-21T09:21:28;99151.66;;;39.31;26.08
66196;BME280;53000;45.182;5.736;2022-08-21T09:27:12;99147.88;;;39.90;28.53
66196;BME280;53000;45.182;5.736;2022-08-21T09:29:41;99150.84;;;40.13;26.58
66196;BME280;53000;45.182;5.736;2022-08-21T09:32:17;99148.34;;;39.92;26.50
66196;BME280;53000;45.182;5.736;2022-08-21T09:35:06;99143.63;;;39.64;24.71
66196;BME280;53000;45.182;5.736;2022-08-21T09:40:43;99140.16;;;39.39;26.12
66196;BME280;53000;45.182;5.736;2022-08-21T09:45:34;99134.75;;;39.66;24.07
66196;BME280;53000;45.182;5.736;2022-08-21T09:48:11;99131.00;;;39.62;26.25
66196;BME280;53000;45.182;5.736;2022-08-21T09:50:37;99124.78;;;39.72;23.68
66196;BME280;53000;45.182;5.736;2022-08-21T09:53:03;99135.13;;;39.64;25.76
66196;BME280;53000;45.182;5.736;2022-08-21T09:55:52;99133.19;;;39.69;26.00
66196;BME280;53000;45.182;5.736;2022-08-21T09:58:38;99122.50;;;39.30;25.55
66196;BME280;53000;45.182;5.736;2022-08-21T10:01:05;99124.59;;;39.01;23.67
66196;BME280;53000;45.182;5.736;2022-08-21T10:03:32;99110.69;;;38.80;25.19
66196;BME280;53000;45.182;5.736;2022-08-21T10:06:04;99106.56;;;38.78;24.64
66196;BME280;53000;45.182;5.736;2022-08-21T10:08:34;99100.59;;;38.67;26.39
66196;BME280;53000;45.182;5.736;2022-08-21T10:11:15;99096.16;;;38.66;27.00
66196;BME280;53000;45.182;5.736;2022-08-21T10:19:18;99074.50;;;37.89;26.08
66196;BME280;53000;45.182;5.736;2022-08-21T10:21:59;99075.78;;;37.92;27.08
66196;BME280;53000;45.182;5.736;2022-08-21T10:24:52;99072.34;;;37.98;25.80
66196;BME280;53000;45.182;5.736;2022-08-21T10:27:41;99066.38;;;37.88;26.99
66196;BME280;53000;45.182;5.736;2022-08-21T10:33:41;99061.13;;;37.49;26.75
66196;BME280;53000;45.182;5.736;2022-08-21T10:41:25;99063.97;;;37.12;25.22
66196;BME280;53000;45.182;5.736;2022-08-21T10:47:10;99048.22;;;37.11;27.82
66196;BME280;53000;45.182;5.736;2022-08-21T10:55:23;99039.41;;;37.13;26.52
66196;BME280;53000;45.182;5.736;2022-08-21T10:57:57;99025.06;;;37.18;27.13
66196;BME280;53000;45.182;5.736;2022-08-21T11:00:29;99017.28;;;37.15;27.69
66196;BME280;53000;45.182;5.736;2022-08-21T11:03:10;99024.00;;;36.98;26.37
66196;BME280;53000;45.182;5.736;2022-08-21T11:05:52;99012.91;;;36.80;27.92
66196;BME280;53000;45.182;5.736;2022-08-21T11:08:29;99008.31;;;36.76;27.81
66196;BME280;53000;45.182;5.736;2022-08-21T11:11:03;99005.63;;;36.67;26.87
66196;BME280;53000;45.182;5.736;2022-08-21T11:13:40;99008.22;;;36.72;28.28
66196;BME280;53000;45.182;5.736;2022-08-21T11:16:26;99002.69;;;36.76;26.49
66196;BME280;53000;45.182;5.736;2022-08-21T11:19:28;98998.31;;;36.78;27.83
66196;BME280;53000;45.182;5.736;2022-08-21T11:22:01;98992.69;;;36.66;27.00
66196;BME280;53000;45.182;5.736;2022-08-21T11:27:09;98979.72;;;36.53;26.35
66196;BME280;53000;45.182;5.736;2022-08-21T11:29:41;98984.25;;;36.33;27.26
66196;BME280;53000;45.182;5.736;2022-08-21T11:40:12;98983.09;;;35.37;27.83
66196;BME280;53000;45.182;5.736;2022-08-21T11:45:19;98964.69;;;34.80;28.89
66196;BME280;53000;45.182;5.736;2022-08-21T11:50:36;98981.78;;;34.19;29.34
66196;BME280;53000;45.182;5.736;2022-08-21T11:55:45;98980.13;;;33.49;30.78
66196;BME280;53000;45.182;5.736;2022-08-21T11:58:41;98967.22;;;33.39;30.60
66196;BME280;53000;45.182;5.736;2022-08-21T12:01:12;98957.31;;;33.24;30.92
66196;BME280;53000;45.182;5.736;2022-08-21T12:03:58;98954.25;;;32.94;31.25
66196;BME280;53000;45.182;5.736;2022-08-21T12:06:34;98956.19;;;32.76;31.98
66196;BME280;53000;45.182;5.736;2022-08-21T12:09:06;98960.28;;;32.70;31.83
66196;BME280;53000;45.182;5.736;2022-08-21T12:11:46;98961.91;;;32.71;31.68
66196;BME280;53000;45.182;5.736;2022-08-21T12:14:15;98957.31;;;32.75;32.30
66196;BME280;53000;45.182;5.736;2022-08-21T12:16:46;98957.66;;;32.74;31.56
66196;BME280;53000;45.182;5.736;2022-08-21T12:19:27;98961.31;;;32.83;32.29
66196;BME280;53000;45.182;5.736;2022-08-21T12:24:45;98954.81;;;32.56;31.62
66196;BME280;53000;45.182;5.736;2022-08-21T12:27:45;98957.00;;;32.46;32.09
66196;BME280;53000;45.182;5.736;2022-08-21T12:32:55;98964.09;;;32.43;32.16
66196;BME280;53000;45.182;5.736;2022-08-21T12:35:27;98956.16;;;32.36;32.43
66196;BME280;53000;45.182;5.736;2022-08-21T12:41:01;98945.13;;;32.40;32.74
66196;BME280;53000;45.182;5.736;2022-08-21T12:43:41;98935.00;;;32.53;32.72
66196;BME280;53000;45.182;5.736;2022-08-21T12:46:17;98949.31;;;32.51;32.27
66196;BME280;53000;45.182;5.736;2022-08-21T12:49:03;98953.72;;;32.44;32.34
66196;BME280;53000;45.182;5.736;2022-08-21T12:51:52;98953.00;;;32.29;31.99
66196;BME280;53000;45.182;5.736;2022-08-21T12:54:29;98946.03;;;32.18;32.66
66196;BME280;53000;45.182;5.736;2022-08-21T12:57:02;98963.25;;;32.11;32.64
66196;BME280;53000;45.182;5.736;2022-08-21T12:59:29;98935.59;;;32.10;32.17
66196;BME280;53000;45.182;5.736;2022-08-21T13:01:56;98951.06;;;32.07;32.46
66196;BME280;53000;45.182;5.736;2022-08-21T13:04:36;98946.75;;;32.01;32.08
66196;BME280;53000;45.182;5.736;2022-08-21T13:07:07;98946.91;;;32.05;32.76
66196;BME280;53000;45.182;5.736;2022-08-21T13:09:36;98948.59;;;32.06;32.81
66196;BME280;53000;45.182;5.736;2022-08-21T13:12:07;98934.94;;;32.13;31.93
66196;BME280;53000;45.182;5.736;2022-08-21T13:14:37;98933.16;;;32.17;31.61
66196;BME280;53000;45.182;5.736;2022-08-21T13:17:05;98918.34;;;32.16;32.18
66196;BME280;53000;45.182;5.736;2022-08-21T13:19:32;98939.63;;;32.26;31.44
66196;BME280;53000;45.182;5.736;2022-08-21T13:21:58;98923.69;;;32.35;31.68
66196;BME280;53000;45.182;5.736;2022-08-21T13:24:25;98927.81;;;32.38;31.72
66196;BME280;53000;45.182;5.736;2022-08-21T13:26:51;98919.78;;;32.45;31.35
66196;BME280;53000;45.182;5.736;2022-08-21T13:29:19;98921.56;;;32.41;30.98
66196;BME280;53000;45.182;5.736;2022-08-21T13:31:55;98916.41;;;32.57;31.26
66196;BME280;53000;45.182;5.736;2022-08-21T13:34:24;98909.97;;;32.56;31.00
66196;BME280;53000;45.182;5.736;2022-08-21T13:36:53;98914.03;;;32.50;30.92
66196;BME280;53000;45.182;5.736;2022-08-21T13:39:20;98905.22;;;32.34;31.19
66196;BME280;53000;45.182;5.736;2022-08-21T13:41:49;98903.56;;;32.25;31.25
66196;BME280;53000;45.182;5.736;2022-08-21T13:44:32;98904.84;;;32.18;31.97
66196;BME280;53000;45.182;5.736;2022-08-21T13:47:00;98892.13;;;32.12;31.76
66196;BME280;53000;45.182;5.736;2022-08-21T13:49:31;98893.44;;;32.15;31.20
66196;BME280;53000;45.182;5.736;2022-08-21T13:51:57;98885.88;;;32.15;31.39
66196;BME280;53000;45.182;5.736;2022-08-21T13:54:26;98883.22;;;32.10;31.29
66196;BME280;53000;45.182;5.736;2022-08-21T13:56:54;98888.13;;;32.05;31.14
66196;BME280;53000;45.182;5.736;2022-08-21T13:59:29;98876.84;;;31.96;31.60
66196;BME280;53000;45.182;5.736;2022-08-21T14:04:39;98871.25;;;31.96;32.14
66196;BME280;53000;45.182;5.736;2022-08-21T14:07:38;98866.94;;;31.90;31.77
66196;BME280;53000;45.182;5.736;2022-08-21T14:10:28;98869.72;;;31.90;31.75
66196;BME280;53000;45.182;5.736;2022-08-21T14:12:59;98866.41;;;31.88;31.00
66196;BME280;53000;45.182;5.736;2022-08-21T14:15:30;98863.81;;;31.91;31.35
66196;BME280;53000;45.182;5.736;2022-08-21T14:18:13;98855.56;;;31.86;31.11
66196;BME280;53000;45.182;5.736;2022-08-21T14:20:41;98860.19;;;31.91;31.04
66196;BME280;53000;45.182;5.736;2022-08-21T14:23:06;98852.19;;;31.98;31.23